createdAt,value
2022-11-05T00:05:14.756Z,8.69
2022-11-05T00:15:14.807Z,8.65
2022-11-05T00:25:15.024Z,8.66
2022-11-05T00:35:15.207Z,8.60
2022-11-05T00:45:15.707Z,8.58
2022-11-05T00:55:15.536Z,8.63
2022-11-05T01:05:15.936Z,8.62
2022-11-05T01:15:15.873Z,8.60
2022-11-05T01:25:16.081Z,8.68
2022-11-05T01:35:16.277Z,8.71
2022-11-05T01:45:16.750Z,8.73
2022-11-05T01:55:16.587Z,8.76
2022-11-05T02:05:16.815Z,8.63
2022-11-05T02:15:16.981Z,8.50
2022-11-05T02:25:17.188Z,8.44
2022-11-05T02:35:17.372Z,8.45
2022-11-05T02:45:17.591Z,8.39
2022-11-05T02:55:18.046Z,8.35
2022-11-05T03:05:17.934Z,8.33
2022-11-05T03:15:18.298Z,8.30
2022-11-05T03:25:18.298Z,8.33
2022-11-05T03:35:18.467Z,8.33
2022-11-05T03:45:18.852Z,8.37
2022-11-05T03:55:18.780Z,8.35
2022-11-05T04:05:19.005Z,8.32
2022-11-05T04:15:19.193Z,8.39
2022-11-05T04:25:19.747Z,8.32
2022-11-05T04:35:19.572Z,8.33
2022-11-05T04:45:19.777Z,8.33
2022-11-05T04:55:19.973Z,8.29
2022-11-05T05:05:20.210Z,8.22
2022-11-05T05:15:20.390Z,8.21
2022-11-05T05:25:20.603Z,8.21
2022-11-05T05:35:20.792Z,8.12
2022-11-05T05:45:21.264Z,8.04
2022-11-05T05:55:21.217Z,8.07
2022-11-05T06:05:21.714Z,8.04
2022-11-05T06:15:21.585Z,8.10
2022-11-05T06:25:21.682Z,8.11
2022-11-05T06:35:21.838Z,8.11
2022-11-05T06:45:22.062Z,8.11
2022-11-05T06:55:22.237Z,8.10
2022-11-05T07:05:22.458Z,8.11
2022-11-05T07:15:22.519Z,8.14
2022-11-05T07:25:22.900Z,8.17
2022-11-05T07:35:22.833Z,8.32
2022-11-05T07:45:23.374Z,8.26
2022-11-05T07:55:23.365Z,8.37
2022-11-05T08:05:23.592Z,8.51
2022-11-05T08:15:23.566Z,8.62
2022-11-05T08:25:23.698Z,8.94
2022-11-05T08:35:23.870Z,9.13
2022-11-05T08:45:24.354Z,9.40
2022-11-05T08:55:24.180Z,9.18
2022-11-05T09:05:24.400Z,9.18
2022-11-05T09:15:24.637Z,9.05
2022-11-05T09:25:24.736Z,8.86
2022-11-05T09:35:24.915Z,8.72
2022-11-05T09:45:25.129Z,8.57
2022-11-05T09:55:25.322Z,8.33
2022-11-05T10:05:25.652Z,8.37
2022-11-05T10:15:25.713Z,8.33
2022-11-05T10:25:25.935Z,8.14
2022-11-05T10:35:26.111Z,8.30
2022-11-05T10:45:26.417Z,8.45
2022-11-05T10:55:26.476Z,8.72
2022-11-05T11:05:26.793Z,8.83
2022-11-05T11:15:27.349Z,9.23
2022-11-05T11:25:27.507Z,8.81
2022-11-05T11:35:27.106Z,8.63
2022-11-05T11:45:27.591Z,8.66
2022-11-05T11:55:27.434Z,8.78
2022-11-05T12:05:27.779Z,8.79
2022-11-05T12:15:28.093Z,8.81
2022-11-05T12:25:27.983Z,8.84
2022-11-05T12:35:28.267Z,9.23
2022-11-05T12:45:28.387Z,9.45
2022-11-05T12:55:28.503Z,9.31
2022-11-05T13:05:28.656Z,9.39
2022-11-05T13:15:28.736Z,9.57
2022-11-05T13:25:28.950Z,9.63
2022-11-05T13:35:29.145Z,9.64
2022-11-05T13:45:29.352Z,9.86
2022-11-05T13:55:29.645Z,9.63
2022-11-05T14:05:29.800Z,9.68
2022-11-05T14:15:29.874Z,9.50
2022-11-05T14:25:30.217Z,9.35
2022-11-05T14:35:30.318Z,9.30
2022-11-05T14:45:30.535Z,9.31
2022-11-05T14:55:30.587Z,9.28
2022-11-05T15:05:31.023Z,9.18
2022-11-05T15:15:30.972Z,9.10
2022-11-05T15:25:31.272Z,9.02
2022-11-05T15:35:31.372Z,8.90
2022-11-05T15:45:31.653Z,8.83
2022-11-05T15:55:31.836Z,8.79
2022-11-05T16:05:32.055Z,8.69
2022-11-05T16:15:32.196Z,8.51
2022-11-05T16:25:32.611Z,8.36
2022-11-05T16:35:32.556Z,8.25
2022-11-05T16:45:37.119Z,8.17
2022-11-05T16:55:33.803Z,8.11
2022-11-05T17:05:33.042Z,7.96
2022-11-05T17:15:33.120Z,7.92
2022-11-05T17:25:33.435Z,7.92
2022-11-05T17:35:33.609Z,7.87
2022-11-05T17:45:33.716Z,7.69
2022-11-05T17:55:33.919Z,7.31
2022-11-05T18:05:34.517Z,7.26
2022-11-05T18:15:34.329Z,6.99
2022-11-05T18:25:34.550Z,6.58
2022-11-05T18:35:34.739Z,6.19
2022-11-05T18:45:34.966Z,5.88
2022-11-05T18:55:35.142Z,5.86
2022-11-05T19:05:35.523Z,5.70
2022-11-05T19:15:35.775Z,5.91
2022-11-05T19:25:35.751Z,6.26
2022-11-05T19:35:41.036Z,6.09
2022-11-05T19:45:44.613Z,6.19
2022-11-05T19:55:37.235Z,5.77
2022-11-05T20:05:36.487Z,5.41
2022-11-05T20:15:36.561Z,5.30
2022-11-05T20:25:36.928Z,5.19
2022-11-05T20:35:36.890Z,4.98
2022-11-05T20:45:37.138Z,4.86
2022-11-05T20:55:37.339Z,4.73
2022-11-05T21:05:37.703Z,4.77
2022-11-05T21:15:37.763Z,4.86
2022-11-05T21:25:37.981Z,4.70
2022-11-05T21:35:38.179Z,4.72
2022-11-05T21:45:38.521Z,4.70
2022-11-05T21:55:38.588Z,4.50
2022-11-05T22:05:38.829Z,4.22
2022-11-05T22:15:38.920Z,4.01
2022-11-05T22:25:39.243Z,4.01
2022-11-05T22:35:39.320Z,3.83
2022-11-05T22:45:39.566Z,3.70
2022-11-05T22:55:39.775Z,3.47
2022-11-05T23:05:40.027Z,3.72
2022-11-05T23:15:40.116Z,3.97
2022-11-05T23:25:40.367Z,3.75
2022-11-05T23:35:40.568Z,3.44
2022-11-05T23:45:40.803Z,3.16
2022-11-05T23:55:40.978Z,3.00
